Time;durP1;ratioP1;P1;durP2;ratioP2;P2;SDS_P1;SDS_P2;PMS_P1;PMS_P2;Temp;Humidity;BMP_temperature;BMP_pressure;BME280_temperature;BME280_humidity;BME280_pressure;Samples;Min_cycle;Max_cycle;Signal;HPM_P1;HPM_P2
2022/11/13 00:00:30;;;;;;;11.27;10.17;;;;;;;12.79;100.00;-17804.78;5073806;28;20265;-58
2022/11/13 00:02:59;;;;;;;11.33;10.53;;;;;;;12.85;100.00;-17487.13;5073385;28;20181;-58
2022/11/13 00:05:26;;;;;;;10.63;9.77;;;;;;;12.85;100.00;-16849.09;5055745;28;20336;-56
2022/11/13 00:07:53;;;;;;;10.70;10.00;;;;;;;12.81;100.00;-16529.28;5073722;28;20261;-58
2022/11/13 00:10:20;;;;;;;10.60;9.90;;;;;;;12.78;100.00;-16528.63;5073603;28;20566;-57
2022/11/13 00:12:47;;;;;;;10.03;9.50;;;;;;;12.80;100.00;-16528.97;5073376;28;20200;-58
2022/11/13 00:15:13;;;;;;;9.93;9.30;;;;;;;12.71;100.00;-15250.75;5073779;28;20647;-58
2022/11/13 00:17:40;;;;;;;9.47;8.87;;;;;;;12.74;100.00;-14932.19;5073177;28;20184;-58
2022/11/13 00:20:09;;;;;;;8.90;8.50;;;;;;;12.76;100.00;-14932.66;5073016;28;20189;-57
2022/11/13 00:22:36;;;;;;;8.63;8.23;;;;;;;12.70;100.00;-14612.34;5072924;28;20200;-58
2022/11/13 00:25:03;;;;;;;10.17;9.37;;;;;;;12.80;100.00;-14294.94;5072824;28;20211;-58
2022/11/13 00:27:31;;;;;;;10.23;9.37;;;;;;;12.77;100.00;-13336.41;5073327;28;20184;-58
2022/11/13 00:29:58;;;;;;;10.67;9.97;;;;;;;12.61;100.00;-13972.25;5072876;28;20189;-58
2022/11/13 00:32:25;;;;;;;8.87;8.23;;;;;;;12.60;100.00;-13652.88;5072764;28;20234;-58
2022/11/13 00:34:52;;;;;;;8.87;8.47;;;;;;;12.36;100.00;-14287.06;5073077;28;20272;-57
2022/11/13 00:37:20;;;;;;;9.80;9.27;;;;;;;12.39;100.00;-15882.50;5072831;28;20195;-58
2022/11/13 00:39:47;;;;;;;13.43;10.00;;;;;;;12.42;100.00;-16202.00;5055314;28;20189;-58
2022/11/13 00:42:14;;;;;;;11.33;10.37;;;;;;;12.41;100.00;-15563.88;5072639;28;20218;-58
2022/11/13 00:44:41;;;;;;;12.23;11.33;;;;;;;12.29;100.00;-15561.69;5072547;28;20208;-58
2022/11/13 00:47:08;;;;;;;13.57;11.73;;;;;;;12.28;100.00;-14923.66;5072880;28;20665;-57
2022/11/13 00:49:35;;;;;;;13.73;11.30;;;;;;;12.37;100.00;-14606.28;5072443;28;20200;-58
2022/11/13 00:52:02;;;;;;;13.00;12.07;;;;;;;11.96;100.00;-14917.59;5072841;28;20188;-58
2022/11/13 00:54:31;;;;;;;13.03;12.00;;;;;;;12.15;100.00;-16515.19;5072618;28;20235;-57
2022/11/13 00:56:58;;;;;;;13.27;12.27;;;;;;;12.10;100.00;-17470.03;5072768;28;20187;-58
2022/11/13 00:59:24;;;;;;;13.77;12.67;;;;;;;12.08;100.00;-18106.56;5072812;28;20493;-58
2022/11/13 01:01:51;;;;;;;13.20;12.27;;;;;;;12.06;100.00;-17787.56;5072421;28;20189;-59
2022/11/13 01:04:18;;;;;;;13.03;12.17;;;;;;;12.03;100.00;-18105.38;5072316;28;20185;-58
2022/11/13 01:06:45;;;;;;;13.90;12.63;;;;;;;11.99;100.00;-17785.91;5072454;28;20621;-58
2022/11/13 01:09:12;;;;;;;13.83;12.73;;;;;;;11.76;100.00;-18100.97;5072441;28;20185;-58
2022/11/13 01:11:41;;;;;;;13.03;12.13;;;;;;;11.71;100.00;-18099.63;5072350;28;20184;-58
2022/11/13 01:14:09;;;;;;;13.60;12.50;;;;;;;11.76;100.00;-18100.84;5072469;28;20628;-58
2022/11/13 01:16:36;;;;;;;13.77;12.67;;;;;;;11.69;100.00;-18099.16;5054597;28;20201;-58
2022/11/13 01:19:03;;;;;;;13.73;12.63;;;;;;;11.63;100.00;-18097.81;5071817;28;20207;-58
2022/11/13 01:21:30;;;;;;;15.37;13.80;;;;;;;11.45;100.00;-18093.47;5072284;28;20185;-57
2022/11/13 01:23:57;;;;;;;15.07;13.77;;;;;;;11.41;100.00;-18092.50;5054376;28;20257;-58
2022/11/13 01:26:26;;;;;;;16.17;14.10;;;;;;;11.39;100.00;-18092.03;5071882;28;20209;-58
2022/11/13 01:28:55;;;;;;;15.67;13.77;;;;;;;11.36;100.00;-18091.31;5072106;28;20189;-57
2022/11/13 01:31:24;;;;;;;17.97;14.07;;;;;;;11.29;100.00;-18089.72;5072018;28;20258;-58
2022/11/13 01:33:52;;;;;;;15.37;13.83;;;;;;;11.22;100.00;-18087.91;5071910;28;20191;-57
2022/11/13 01:36:21;;;;;;;19.03;14.50;;;;;;;11.11;100.00;-18085.38;5072193;28;20525;-58
2022/11/13 01:38:49;;;;;;;20.10;14.83;;;;;;;11.08;100.00;-18082.81;5071682;28;20193;-58
2022/11/13 01:41:18;;;;;;;16.23;14.57;;;;;;;11.08;100.00;-18082.81;5071297;28;20185;-58
2022/11/13 01:43:45;;;;;;;17.93;14.00;;;;;;;11.10;100.00;-17765.13;5071643;28;20188;-58
2022/11/13 01:46:22;;;;;;;19.03;14.67;;;;;;;11.13;100.00;-17765.94;5054238;28;20208;-58
2022/11/13 01:48:54;;;;;;;15.40;13.53;;;;;;;11.21;100.00;-17767.72;5071485;28;20188;-57
2022/11/13 01:51:28;;;;;;;19.90;14.53;;;;;;;11.14;100.00;-17766.19;5072011;28;20185;-59
2022/11/13 01:53:57;;;;;;;20.40;14.73;;;;;;;11.10;100.00;-17765.25;5071716;28;20190;-58
2022/11/13 01:56:25;;;;;;;23.77;14.23;;;;;;;10.94;100.00;-18079.53;5071653;28;20187;-61
2022/11/13 01:58:57;;;;;;;20.57;14.43;;;;;;;10.82;100.00;-18076.53;5071939;28;20184;-58
2022/11/13 02:01:25;;;;;;;17.37;13.20;;;;;;;10.68;100.00;-18073.13;5072071;28;20191;-58
2022/11/13 02:03:52;;;;;;;15.87;14.27;;;;;;;10.70;100.00;-17755.78;5071922;28;20185;-58
2022/11/13 02:06:20;;;;;;;17.77;14.33;;;;;;;10.59;100.00;-17753.19;5071857;28;20240;-58
2022/11/13 02:08:50;;;;;;;19.03;15.07;;;;;;;10.48;100.00;-17750.72;5071632;28;20189;-58
2022/11/13 02:11:18;;;;;;;17.90;14.37;;;;;;;10.38;100.00;-17748.47;5071722;28;20200;-60
2022/11/13 02:13:45;;;;;;;15.80;14.23;;;;;;;10.45;100.00;-17432.38;5054327;28;20214;-60
2022/11/13 02:16:13;;;;;;;17.30;14.17;;;;;;;10.40;100.00;-17431.09;5072967;28;20644;-60
2022/11/13 02:18:42;;;;;;;17.33;13.77;;;;;;;10.44;100.00;-17114.25;5072552;28;20639;-58
2022/11/13 02:21:20;;;;;;;15.83;14.03;;;;;;;10.34;100.00;-17429.81;5071934;28;20195;-59
2022/11/13 02:23:55;;;;;;;24.93;15.60;;;;;;;10.29;100.00;-17428.56;5072249;28;20193;-58
2022/11/13 02:26:26;;;;;;;22.73;15.77;;;;;;;10.15;100.00;-17425.44;5071254;28;20261;-58
2022/11/13 02:28:53;;;;;;;31.33;17.27;;;;;;;10.28;100.00;-17428.31;5050568;28;20552;-58
2022/11/13 02:31:20;;;;;;;24.17;16.13;;;;;;;10.25;100.00;-17110.06;5063365;28;20242;-58
2022/11/13 02:33:47;;;;;;;36.40;16.50;;;;;;;10.18;100.00;-17108.50;5071689;28;20541;-58
2022/11/13 02:36:15;;;;;;;23.37;16.70;;;;;;;10.07;100.00;-17106.00;5071649;28;20185;-57
2022/11/13 02:38:43;;;;;;;32.17;17.67;;;;;;;10.09;100.00;-17424.03;5071538;28;20636;-57
2022/11/13 02:41:10;;;;;;;23.40;15.80;;;;;;;10.08;100.00;-17106.22;5071472;28;20185;-58
2022/11/13 02:43:38;;;;;;;19.90;17.07;;;;;;;10.09;100.00;-17106.56;5071276;28;20201;-58
2022/11/13 02:46:05;;;;;;;23.20;16.47;;;;;;;10.04;100.00;-16787.72;5071004;28;20230;-58
2022/11/13 02:48:32;;;;;;;21.83;15.80;;;;;;;9.94;100.00;-16785.50;5071198;28;20189;-58
2022/11/13 02:50:59;;;;;;;25.27;16.47;;;;;;;9.83;100.00;-16783.09;5071174;28;20185;-58
2022/11/13 02:53:28;;;;;;;27.07;16.90;;;;;;;9.81;100.00;-17100.13;5074785;28;20191;-57
2022/11/13 02:55:55;;;;;;;26.87;17.37;;;;;;;9.93;100.00;-17102.84;5074961;28;20181;-57
2022/11/13 02:58:22;;;;;;;26.50;15.83;;;;;;;10.03;100.00;-17105.09;5074742;28;20193;-58
2022/11/13 03:00:50;;;;;;;21.07;14.47;;;;;;;10.16;100.00;-17107.94;5074996;28;20189;-58
2022/11/13 03:03:17;;;;;;;23.03;15.77;;;;;;;10.23;100.00;-17109.50;5074652;28;20189;-57
2022/11/13 03:05:48;;;;;;;25.07;15.97;;;;;;;10.07;100.00;-16788.38;5057122;28;20594;-58
2022/11/13 03:08:15;;;;;;;25.10;17.17;;;;;;;9.98;100.00;-16468.81;5074827;28;20193;-57
2022/11/13 03:10:42;;;;;;;19.90;15.53;;;;;;;9.94;100.00;-16785.50;5074776;28;20554;-58
2022/11/13 03:13:09;;;;;;;24.67;15.87;;;;;;;9.97;100.00;-16786.19;5074388;28;20196;-58
2022/11/13 03:15:36;;;;;;;18.27;15.13;;;;;;;9.95;100.00;-17103.28;5074481;28;20208;-57
2022/11/13 03:18:05;;;;;;;22.07;15.37;;;;;;;9.87;100.00;-17101.47;5074329;28;20189;-58
2022/11/13 03:20:33;;;;;;;17.83;15.40;;;;;;;9.72;100.00;-17415.59;5074646;28;20185;-58
2022/11/13 03:23:00;;;;;;;21.93;15.83;;;;;;;9.75;100.00;-17098.88;5074531;28;20648;-57
2022/11/13 03:25:27;;;;;;;22.43;15.50;;;;;;;9.52;100.00;-17093.78;5074122;28;20201;-58
2022/11/13 03:27:54;;;;;;;16.33;14.60;;;;;;;9.58;100.00;-17095.13;5074093;28;20195;-58
2022/11/13 03:30:21;;;;;;;23.17;15.73;;;;;;;9.36;100.00;-17407.25;5074436;28;20540;-59
2022/11/13 03:32:47;;;;;;;17.13;14.30;;;;;;;9.45;100.00;-17409.44;5074048;28;20228;-59
2022/11/13 03:35:16;;;;;;;19.30;14.23;;;;;;;9.54;100.00;-17411.41;5074846;28;20197;-57
2022/11/13 03:37:43;;;;;;;17.40;15.07;;;;;;;9.32;100.00;-17406.31;5074014;28;20185;-57
2022/11/13 03:40:10;;;;;;;15.57;14.00;;;;;;;9.38;100.00;-17407.81;5074231;28;20280;-58
2022/11/13 03:42:37;;;;;;;19.67;14.40;;;;;;;9.40;100.00;-17408.19;5074129;28;20191;-58
2022/11/13 03:45:05;;;;;;;23.27;14.63;;;;;;;9.41;100.00;-17408.41;5073779;28;20189;-57
2022/11/13 03:47:32;;;;;;;19.20;15.53;;;;;;;9.36;100.00;-17407.38;5074036;28;20224;-58
2022/11/13 03:49:59;;;;;;;23.37;15.07;;;;;;;9.42;100.00;-17091.50;5073841;28;20188;-58
2022/11/13 03:52:28;;;;;;;19.50;15.30;;;;;;;9.48;100.00;-17092.88;5073806;28;20189;-58
2022/11/13 03:54:54;;;;;;;20.27;14.57;;;;;;;9.48;100.00;-16775.56;5073999;28;20188;-57
2022/11/13 03:57:21;;;;;;;23.73;14.37;;;;;;;9.48;100.00;-16775.44;5073659;28;20187;-58
2022/11/13 03:59:48;;;;;;;17.30;15.07;;;;;;;9.41;100.00;-16774.00;5073886;28;20196;-58
2022/11/13 04:02:15;;;;;;;17.60;14.40;;;;;;;9.35;100.00;-16772.69;5073798;28;20223;-57
2022/11/13 04:04:43;;;;;;;24.37;15.27;;;;;;;9.22;100.00;-16769.81;5072733;28;20195;-58
2022/11/13 04:07:10;;;;;;;16.70;15.03;;;;;;;9.14;100.00;-16768.03;5073631;28;20212;-57
2022/11/13 04:09:38;;;;;;;17.97;15.70;;;;;;;9.14;100.00;-16768.03;5073757;28;20195;-57
2022/11/13 04:12:06;;;;;;;17.00;14.20;;;;;;;9.21;100.00;-16769.56;5073268;28;20280;-58
2022/11/13 04:14:32;;;;;;;15.43;13.90;;;;;;;9.24;100.00;-16770.13;5073585;28;20189;-57
2022/11/13 04:16:59;;;;;;;21.57;13.93;;;;;;;9.18;100.00;-16769.03;5072992;28;20185;-58
2022/11/13 04:19:26;;;;;;;19.30;13.83;;;;;;;9.05;100.00;-16766.16;5073225;28;20181;-58
2022/11/13 04:21:53;;;;;;;17.47;14.50;;;;;;;8.92;100.00;-17080.19;5073241;28;20280;-57
2022/11/13 04:24:20;;;;;;;15.13;13.43;;;;;;;8.87;100.00;-17079.03;5073002;28;20185;-57
2022/11/13 04:26:48;;;;;;;15.20;13.67;;;;;;;8.66;100.00;-17074.50;5072961;28;20208;-58
2022/11/13 04:29:15;;;;;;;18.50;13.83;;;;;;;8.69;100.00;-17075.19;5072996;28;20189;-58
2022/11/13 04:31:42;;;;;;;15.83;13.37;;;;;;;8.54;100.00;-17071.78;5055083;28;20289;-58
2022/11/13 04:34:09;;;;;;;14.63;13.23;;;;;;;8.63;100.00;-17073.84;5073144;28;20193;-58
2022/11/13 04:36:36;;;;;;;15.07;12.50;;;;;;;8.54;100.00;-17071.78;5073140;28;20191;-59
2022/11/13 04:39:03;;;;;;;14.20;13.07;;;;;;;8.47;100.00;-17070.09;5073049;28;20639;-57
2022/11/13 04:44:16;;;;;;;15.50;12.97;;;;;;;8.31;100.00;-17066.56;5073361;28;20222;-57
2022/11/13 04:46:43;;;;;;;19.33;13.90;;;;;;;8.19;100.00;-17063.97;5055116;28;20592;-57
2022/11/13 04:49:10;;;;;;;33.57;13.73;;;;;;;8.36;100.00;-17067.59;5072804;28;20195;-58
2022/11/13 04:51:37;;;;;;;24.07;13.67;;;;;;;8.26;100.00;-17065.44;5072807;28;20579;-57
2022/11/13 04:54:04;;;;;;;24.90;13.20;;;;;;;8.26;100.00;-17065.56;5072835;28;20540;-58
2022/11/13 04:56:31;;;;;;;31.00;13.50;;;;;;;8.17;100.00;-17063.41;5072412;28;20185;-58
2022/11/13 04:58:58;;;;;;;16.37;11.20;;;;;;;8.03;100.00;-17060.34;5054710;28;20271;-57
2022/11/13 05:01:26;;;;;;;14.63;12.77;;;;;;;7.97;100.00;-17058.84;5072597;28;20200;-58
2022/11/13 05:03:53;;;;;;;19.03;13.00;;;;;;;8.02;100.00;-17376.53;5072617;28;20189;-58
2022/11/13 05:06:20;;;;;;;11.53;10.37;;;;;;;7.95;100.00;-17375.00;5073163;28;20204;-58
2022/11/13 05:08:47;;;;;;;13.50;11.73;;;;;;;7.89;100.00;-17373.63;5072233;28;20195;-58
2022/11/13 05:11:14;;;;;;;10.77;9.73;;;;;;;7.86;100.00;-17372.81;5072498;28;20192;-58
2022/11/13 05:13:41;;;;;;;10.40;9.50;;;;;;;7.90;100.00;-17057.38;5072434;28;20185;-57
2022/11/13 05:16:10;;;;;;;21.77;10.13;;;;;;;7.82;100.00;-16739.09;5071784;28;20643;-58
2022/11/13 05:18:39;;;;;;;14.17;9.87;;;;;;;7.63;100.00;-16102.16;5072153;28;20192;-58
2022/11/13 05:21:08;;;;;;;20.10;10.47;;;;;;;7.55;100.00;-16733.22;5071897;28;20184;-57
2022/11/13 05:23:35;;;;;;;9.77;9.17;;;;;;;7.47;100.00;-17680.09;5072207;28;20236;-57
2022/11/13 05:26:03;;;;;;;11.27;9.87;;;;;;;7.51;100.00;-17364.91;5072183;28;20208;-57
2022/11/13 05:28:30;;;;;;;9.93;9.23;;;;;;;7.47;100.00;-17047.72;5072345;28;20211;-58
2022/11/13 05:31:04;;;;;;;10.47;9.47;;;;;;;7.56;100.00;-16733.44;5072564;28;20189;-57
2022/11/13 05:33:31;;;;;;;13.77;10.13;;;;;;;7.66;100.00;-16735.56;5072547;28;20193;-57
2022/11/13 05:36:03;;;;;;;10.63;9.60;;;;;;;7.58;100.00;-16417.50;5072302;28;20188;-57
2022/11/13 05:38:30;;;;;;;10.03;9.20;;;;;;;7.69;100.00;-16419.78;5054631;28;20185;-58
2022/11/13 05:41:01;;;;;;;9.80;9.13;;;;;;;8.07;100.00;-16744.66;5072365;28;20184;-58
2022/11/13 05:43:29;;;;;;;9.37;8.77;;;;;;;8.48;100.00;-17387.19;5054417;28;20217;-57
2022/11/13 05:46:00;;;;;;;12.70;11.60;;;;;;;8.95;100.00;-18031.78;5071773;28;20189;-58
2022/11/13 05:48:28;;;;;;;14.90;13.43;;;;;;;9.26;100.00;-18039.16;5072161;28;20694;-58
2022/11/13 05:51:00;;;;;;;12.70;11.43;;;;;;;9.57;100.00;-14872.75;5071975;28;20189;-57
2022/11/13 05:53:28;;;;;;;10.80;10.20;;;;;;;9.91;100.00;-10109.63;5071872;28;20188;-58
2022/11/13 05:55:59;;;;;;;9.77;8.90;;;;;;;10.09;100.00;-2144.75;5071952;28;20210;-59
2022/11/13 05:58:26;;;;;;;8.97;8.43;;;;;;;10.50;100.00;5847.63;5071972;28;20192;-57
2022/11/13 06:00:53;;;;;;;7.90;7.50;;;;;;;10.87;100.00;14189.81;5071636;28;20185;-58
2022/11/13 06:03:20;;;;;;;7.90;7.40;;;;;;;11.00;100.00;30288.63;5071872;28;20667;-58
2022/11/13 06:05:47;;;;;;;6.60;6.30;;;;;;;11.19;100.00;37407.47;5071947;28;20189;-58
2022/11/13 06:08:13;;;;;;;7.37;6.70;;;;;;;11.42;100.00;40984.13;5071538;28;20204;-58
2022/11/13 06:10:42;;;;;;;6.90;6.60;;;;;;;11.75;100.00;42952.88;5071796;28;20616;-58
2022/11/13 06:13:09;;;;;;;7.17;6.87;;;;;;;12.33;100.00;64162.16;5071456;28;20184;-58
2022/11/13 06:15:35;;;;;;;7.30;6.77;;;;;;;12.40;100.00;89416.09;5071773;28;20199;-58
2022/11/13 06:18:02;;;;;;;7.40;6.90;;;;;;;13.00;100.00;105354.91;5071395;28;20267;-59
2022/11/13 06:20:29;;;;;;;10.33;7.17;;;;;;;12.87;100.00;143421.78;5071697;28;20704;-59
2022/11/13 06:22:58;;;;;;;7.93;7.53;;;;;;;13.36;100.00;149396.97;5071723;28;20195;-58
2022/11/13 06:25:25;;;;;;;8.03;7.63;;;;;;;13.86;100.00;149522.41;5071330;28;20195;-58
2022/11/13 06:27:53;;;;;;;8.43;7.93;;;;;;;13.81;100.00;149508.44;5074709;28;20247;-58
2022/11/13 06:30:20;;;;;;;7.87;7.40;;;;;;;13.97;100.00;149550.25;5075665;28;20207;-58
2022/11/13 06:32:52;;;;;;;8.07;7.50;;;;;;;14.29;100.00;149628.88;5075266;28;20228;-58
2022/11/13 06:35:19;;;;;;;7.53;7.13;;;;;;;14.47;100.00;149674.56;5075508;28;20184;-58
2022/11/13 06:37:46;;;;;;;8.30;7.80;;;;;;;15.04;100.00;149819.13;5075113;28;20188;-59
2022/11/13 06:40:14;;;;;;;9.67;8.10;;;;;;;15.23;100.00;149864.81;5074964;28;20566;-58
2022/11/13 06:42:40;;;;;;;8.33;7.73;;;;;;;15.71;100.00;149985.38;5075527;28;20552;-58
2022/11/13 06:45:10;;;;;;;8.77;8.27;;;;;;;15.76;100.00;149999.34;5074982;28;20180;-59
2022/11/13 06:47:37;;;;;;;7.60;7.20;;;;;;;15.91;100.00;150037.41;5075319;28;20220;-58
2022/11/13 06:50:05;;;;;;;9.77;7.87;;;;;;;15.73;100.00;149990.47;5075642;28;20195;-58
2022/11/13 06:52:32;;;;;;;9.07;8.30;;;;;;;15.89;100.00;150031.06;5075128;28;20188;-58
2022/11/13 06:55:00;;;;;;;7.83;7.40;;;;;;;15.74;100.00;149993.00;5074862;28;20220;-59
2022/11/13 06:57:27;;;;;;;8.60;8.00;;;;;;;16.25;100.00;150121.22;5075110;28;20189;-58
2022/11/13 06:59:54;;;;;;;9.70;8.90;;;;;;;16.46;100.00;150175.78;5074711;28;20189;-58
2022/11/13 07:02:22;;;;;;;9.13;8.33;;;;;;;16.81;100.00;150263.47;5057582;28;20189;-58
2022/11/13 07:04:49;;;;;;;8.03;7.73;;;;;;;17.16;100.00;150351.13;5074655;28;20191;-58
2022/11/13 07:07:16;;;;;;;9.27;8.47;;;;;;;17.20;100.00;150361.28;5074544;28;20219;-58
2022/11/13 07:09:43;;;;;;;7.63;7.33;;;;;;;17.53;100.00;150443.88;5074580;28;20282;-59
2022/11/13 07:12:10;;;;;;;7.63;7.03;;;;;;;18.34;100.00;150647.31;5074785;28;20544;-59
2022/11/13 07:14:37;;;;;;;9.37;8.77;;;;;;;17.99;100.00;150559.56;5074791;28;20196;-59
2022/11/13 07:17:04;;;;;;;8.10;7.50;;;;;;;17.93;100.00;150544.34;5074373;28;20181;-59
2022/11/13 07:19:32;;;;;;;9.67;8.00;;;;;;;18.17;100.00;150605.34;5074381;28;20220;-58
2022/11/13 07:21:59;;;;;;;8.50;7.97;;;;;;;18.26;100.00;150628.25;5074609;28;20199;-58
2022/11/13 07:24:26;;;;;;;8.30;7.63;;;;;;;18.99;100.00;150810.16;5074663;28;20185;-59
2022/11/13 07:26:52;;;;;;;9.37;8.53;;;;;;;19.64;100.00;150973.09;5074466;28;20263;-59
2022/11/13 07:29:19;;;;;;;8.00;7.70;;;;;;;20.47;100.00;151184.47;5074294;28;20276;-59
2022/11/13 07:31:46;;;;;;;8.93;8.33;;;;;;;20.32;100.00;151146.31;5073963;28;20224;-58
2022/11/13 07:34:14;;;;;;;8.57;8.03;;;;;;;20.69;100.00;151237.97;5074425;28;20646;-58
2022/11/13 07:36:42;;;;;;;9.37;8.77;;;;;;;20.77;100.00;151258.34;5074765;28;20205;-58
2022/11/13 07:39:09;;;;;;;8.87;8.37;;;;;;;21.51;100.00;151444.44;5072980;28;20222;-58
2022/11/13 07:41:36;;;;;;;9.10;8.70;;;;;;;21.57;100.00;151459.69;5073961;28;20195;-59
2022/11/13 07:44:03;;;;;;;9.60;9.15;;;;;;;22.31;100.00;151648.44;5073963;28;20205;-59
2022/11/13 07:46:30;;;;;;;9.68;8.82;;;;;;;23.09;100.00;151843.59;5074533;28;20665;-59
2022/11/13 07:48:57;;;;;;;9.00;8.60;;;;;;;22.94;100.00;151805.34;5073753;28;20205;-59
2022/11/13 07:51:24;;;;;;;9.23;8.82;;;;;;;22.45;100.00;151681.59;5074079;28;20191;-59
2022/11/13 07:53:52;;;;;;;9.63;8.98;;;;;;;22.19;100.00;151616.56;5074098;28;20551;-58
2022/11/13 07:56:21;;;;;;;9.27;8.88;;;;;;;22.42;100.00;151675.19;5073676;28;20184;-58
2022/11/13 07:58:49;;;;;;;8.90;8.25;;;;;;;22.61;100.00;151722.41;5073686;28;20191;-59
2022/11/13 08:01:16;;;;;;;9.77;8.63;;;;;;;22.83;100.00;151778.53;5073979;28;20558;-59
2022/11/13 08:03:43;;;;;;;8.00;7.60;;;;;;;23.07;100.00;151838.53;5073542;28;20188;-59
2022/11/13 08:06:10;;;;;;;9.07;8.43;;;;;;;22.66;100.00;151735.16;5073610;28;20185;-59
2022/11/13 08:08:36;;;;;;;8.80;8.13;;;;;;;23.05;100.00;151834.69;5073382;28;20211;-59
2022/11/13 08:11:07;;;;;;;9.10;8.45;;;;;;;23.47;100.00;151940.63;5073545;28;20184;-59
2022/11/13 08:13:35;;;;;;;8.25;7.65;;;;;;;23.41;100.00;151925.28;5073569;28;20228;-59
2022/11/13 08:16:02;;;;;;;9.63;8.77;;;;;;;23.31;100.00;151898.47;5074058;28;20195;-58
2022/11/13 08:18:31;;;;;;;8.80;8.50;;;;;;;24.18;98.65;152118.13;5073700;28;20192;-60
2022/11/13 08:21:01;;;;;;;8.82;8.23;;;;;;;23.67;100.00;151991.72;5073431;28;20177;-59
2022/11/13 08:23:28;;;;;;;7.82;7.53;;;;;;;24.02;100.00;152079.75;5073471;28;20258;-59
2022/11/13 08:25:55;;;;;;;9.60;8.27;;;;;;;23.82;99.71;152028.69;5073353;28;20189;-59
2022/11/13 08:28:23;;;;;;;9.20;8.70;;;;;;;24.27;100.00;152142.41;5072990;28;20215;-59
2022/11/13 08:30:50;;;;;;;8.57;8.25;;;;;;;24.69;97.19;152248.38;5072965;28;20300;-59
2022/11/13 08:33:17;;;;;;;9.13;8.52;;;;;;;24.45;98.46;152187.06;5072847;28;20230;-58
2022/11/13 08:35:52;;;;;;;7.95;7.65;;;;;;;24.71;96.49;152252.19;5071977;28;20211;-58
2022/11/13 08:38:19;;;;;;;9.35;8.95;;;;;;;25.33;92.76;152409.41;5072816;28;20189;-58
2022/11/13 08:40:46;;;;;;;8.43;7.95;;;;;;;25.86;89.12;152543.59;5072760;28;20185;-59
2022/11/13 08:43:13;;;;;;;9.25;8.85;;;;;;;25.27;93.51;152394.03;5072679;28;20189;-59
2022/11/13 08:45:41;;;;;;;9.43;8.98;;;;;;;25.91;91.64;152556.38;5072603;28;20185;-58
2022/11/13 08:48:09;;;;;;;9.80;9.10;;;;;;;25.90;92.07;152553.81;5072709;28;20313;-63
2022/11/13 08:50:37;;;;;;;9.50;8.90;;;;;;;26.61;87.91;152732.84;5072649;28;20614;-58
2022/11/13 08:53:04;;;;;;;9.55;9.00;;;;;;;26.29;89.34;152652.31;5072694;28;20620;-58
2022/11/13 08:55:32;;;;;;;10.38;9.50;;;;;;;26.47;88.79;152697.06;5072875;28;20191;-58
2022/11/13 08:58:00;;;;;;;8.95;8.65;;;;;;;27.23;83.13;152890.25;5072492;28;20191;-59
2022/11/13 09:00:27;;;;;;;9.90;9.05;;;;;;;27.52;81.58;152964.50;5072386;28;20181;-59
2022/11/13 09:02:56;;;;;;;9.65;8.90;;;;;;;28.26;76.06;153151.41;5072319;28;20215;-58
2022/11/13 09:05:24;;;;;;;8.75;8.23;;;;;;;29.43;71.36;153448.56;5072384;28;20189;-58
2022/11/13 09:07:51;;;;;;;8.93;8.57;;;;;;;29.87;66.45;153558.81;5072127;28;20208;-59
2022/11/13 09:10:18;;;;;;;9.93;8.68;;;;;;;29.44;67.38;153451.16;5072153;28;20185;-58
2022/11/13 09:12:45;;;;;;;9.05;8.25;;;;;;;29.44;68.35;153451.16;5072230;28;20181;-59
2022/11/13 09:15:12;;;;;;;8.15;7.85;;;;;;;29.33;69.69;153422.94;5072492;28;20271;-58
2022/11/13 09:17:39;;;;;;;8.05;7.75;;;;;;;28.95;69.45;153326.81;5072185;28;20189;-60
2022/11/13 09:20:09;;;;;;;7.93;7.57;;;;;;;29.84;67.22;153551.03;5072095;28;20189;-60
2022/11/13 09:22:36;;;;;;;8.57;8.07;;;;;;;29.59;64.92;153487.00;5072400;28;20673;-60
2022/11/13 09:25:03;;;;;;;7.90;7.38;;;;;;;30.30;64.52;153667.69;5072276;28;20198;-58
2022/11/13 09:27:30;;;;;;;7.13;6.82;;;;;;;31.01;58.18;153847.31;5071994;28;20189;-59
2022/11/13 09:29:57;;;;;;;7.78;7.45;;;;;;;30.79;58.28;153792.13;5072052;28;20188;-59
2022/11/13 09:32:23;;;;;;;7.93;7.30;;;;;;;30.44;59.53;153703.66;5071817;28;20229;-58
2022/11/13 09:34:51;;;;;;;8.10;7.70;;;;;;;30.35;60.84;153681.81;5071892;28;20181;-59
2022/11/13 09:37:19;;;;;;;7.90;7.50;;;;;;;30.72;58.08;153774.19;5071820;28;20184;-58
2022/11/13 09:39:46;;;;;;;8.45;7.90;;;;;;;30.17;59.21;153635.66;5071882;28;20191;-59
2022/11/13 09:42:18;;;;;;;8.35;7.80;;;;;;;29.99;62.01;153588.28;5072129;28;20624;-58
2022/11/13 09:44:49;;;;;;;8.50;7.90;;;;;;;28.79;66.45;153284.56;5071816;28;20188;-58
2022/11/13 09:47:20;;;;;;;8.05;7.75;;;;;;;28.80;68.35;153287.16;5072433;28;20556;-59
2022/11/13 09:49:51;;;;;;;8.52;8.05;;;;;;;28.36;70.49;153176.97;5072080;28;20188;-61
2022/11/13 09:52:28;;;;;;;10.35;9.15;;;;;;;28.32;71.16;153166.75;5071661;28;20185;-59
2022/11/13 09:54:55;;;;;;;9.57;9.07;;;;;;;28.49;67.77;153208.97;5071698;28;20191;-58
2022/11/13 09:57:32;;;;;;;9.55;8.82;;;;;;;28.49;69.76;153208.97;5063605;28;20180;-58
2022/11/13 10:00:02;;;;;;;14.88;13.63;;;;;;;27.64;74.34;152993.91;5071696;28;20196;-58
2022/11/13 10:02:55;;;;;;;14.25;13.35;;;;;;;26.76;78.78;152771.22;5077148;28;20215;-58
2022/11/13 10:05:28;;;;;;;13.55;12.65;;;;;;;27.15;77.13;152869.78;5078564;28;20226;-58
2022/11/13 10:08:04;;;;;;;13.45;12.48;;;;;;;27.47;77.79;152951.69;5078159;28;20214;-58
2022/11/13 10:10:52;;;;;;;12.65;11.68;;;;;;;27.62;74.37;152988.81;5078175;28;20187;-58
2022/11/13 10:13:24;;;;;;;11.32;10.43;;;;;;;28.46;68.80;153202.59;5059714;28;20548;-58
2022/11/13 10:15:55;;;;;;;10.10;9.40;;;;;;;28.35;68.02;153173.13;5078090;28;20194;-57
2022/11/13 10:18:26;;;;;;;10.05;9.20;;;;;;;28.92;66.33;153319.16;5078114;28;20191;-59
2022/11/13 10:20:57;;;;;;;9.80;9.25;;;;;;;28.86;64.44;153302.50;5078155;28;20195;-58
2022/11/13 10:23:29;;;;;;;9.63;8.82;;;;;;;29.15;64.14;153376.81;5078426;28;20246;-57
2022/11/13 10:26:00;;;;;;;8.63;8.10;;;;;;;29.47;63.70;153458.81;5078371;28;20257;-58
2022/11/13 10:28:27;;;;;;;10.00;9.25;;;;;;;29.80;59.14;153540.78;5077981;28;20214;-59
2022/11/13 10:30:54;;;;;;;7.72;7.30;;;;;;;30.18;57.71;153638.25;5078003;28;20238;-59
2022/11/13 10:33:22;;;;;;;7.75;7.05;;;;;;;29.44;59.79;153451.16;5077929;28;20228;-58
2022/11/13 10:35:56;;;;;;;4.10;4.00;;;;;;;27.35;66.84;152920.94;5078271;28;20547;-58
2022/11/13 10:38:32;;;;;;;4.97;4.78;;;;;;;26.77;73.30;152773.81;5070110;28;20198;-58
2022/11/13 10:41:11;;;;;;;6.32;5.93;;;;;;;26.99;71.93;152828.84;5078566;28;20631;-58
2022/11/13 10:43:52;;;;;;;6.25;5.95;;;;;;;26.75;74.22;152769.94;5078262;28;20607;-59
2022/11/13 10:46:22;;;;;;;6.82;6.53;;;;;;;26.70;76.60;152757.16;5078232;28;20639;-59
2022/11/13 10:48:49;;;;;;;7.05;6.55;;;;;;;26.79;74.04;152780.19;5077786;28;20215;-59
2022/11/13 10:51:24;;;;;;;6.28;6.05;;;;;;;27.14;73.31;152867.22;5078117;28;20199;-58
2022/11/13 10:53:53;;;;;;;6.47;6.13;;;;;;;26.82;74.50;152786.56;5077857;28;20230;-59
2022/11/13 10:56:25;;;;;;;7.72;7.20;;;;;;;26.88;75.22;152800.69;5078142;28;20198;-57
2022/11/13 10:59:10;;;;;;;6.63;6.32;;;;;;;26.48;78.55;152699.63;5077892;28;20271;-58
2022/11/13 11:01:37;;;;;;;4.72;4.53;;;;;;;26.16;78.33;152620.31;5078102;28;20184;-58
2022/11/13 11:04:05;;;;;;;5.68;5.47;;;;;;;26.95;74.24;152818.56;5078780;28;20200;-59
2022/11/13 11:06:33;;;;;;;5.85;5.35;;;;;;;27.79;70.35;153031.03;5078085;28;20181;-61
2022/11/13 11:09:20;;;;;;;7.10;6.43;;;;;;;26.69;69.71;152754.59;5078120;28;20211;-58
2022/11/13 11:12:17;;;;;;;5.50;5.30;;;;;;;26.27;74.55;152648.47;5077914;28;20272;-58
2022/11/13 11:15:06;;;;;;;7.50;7.20;;;;;;;25.51;79.54;152454.06;5074899;28;20192;-58
2022/11/13 11:17:38;;;;;;;6.95;6.43;;;;;;;24.58;85.30;152220.25;5068301;28;20238;-58
2022/11/13 11:20:14;;;;;;;5.90;5.60;;;;;;;23.34;92.02;151906.16;5074789;28;20185;-57
2022/11/13 11:22:42;;;;;;;6.70;6.40;;;;;;;22.30;99.99;151645.88;5057990;28;20185;-58